createdAt,value
2016-05-29T00:00:10.979Z,1003.66
2016-05-29T00:01:11.045Z,1003.64
2016-05-29T00:02:11.126Z,1003.65
2016-05-29T00:03:11.143Z,1003.63
2016-05-29T00:04:11.193Z,1003.62
2016-05-29T00:05:11.821Z,1003.56
2016-05-29T00:06:11.324Z,1003.55
2016-05-29T00:07:11.357Z,1003.57
2016-05-29T00:08:11.423Z,1003.5
2016-05-29T00:09:11.473Z,1003.48
2016-05-29T00:10:11.522Z,1003.47
2016-05-29T00:11:11.572Z,1003.48
2016-05-29T00:12:11.636Z,1003.48
2016-05-29T00:13:11.687Z,1003.52
2016-05-29T00:14:11.736Z,1003.53
2016-05-29T00:15:11.800Z,1003.51
2016-05-29T00:16:11.850Z,1003.54
2016-05-29T00:17:11.900Z,1003.56
2016-05-29T00:18:11.950Z,1003.55
2016-05-29T00:19:12.000Z,1003.52
2016-05-29T00:20:12.267Z,1003.49
2016-05-29T00:21:12.114Z,1003.49
2016-05-29T00:22:12.164Z,1003.47
2016-05-29T00:23:12.229Z,1003.49
2016-05-29T00:24:12.294Z,1003.48
2016-05-29T00:25:12.328Z,1003.46
2016-05-29T00:26:12.393Z,1003.46
2016-05-29T00:27:12.443Z,1003.45
2016-05-29T00:28:12.492Z,1003.42
2016-05-29T00:29:12.541Z,1003.4
2016-05-29T00:30:12.591Z,1003.37
2016-05-29T00:31:12.657Z,1003.35
2016-05-29T00:32:12.706Z,1003.35
2016-05-29T00:33:12.756Z,1003.34
2016-05-29T00:34:12.821Z,1003.31
2016-05-29T00:35:12.871Z,1003.34
2016-05-29T00:36:13.420Z,1003.31
2016-05-29T00:37:12.985Z,1003.36
2016-05-29T00:38:13.034Z,1003.35
2016-05-29T00:39:13.084Z,1003.36
2016-05-29T00:40:13.134Z,1003.36
2016-05-29T00:41:13.199Z,1003.31
2016-05-29T00:42:13.248Z,1003.34
2016-05-29T00:43:13.298Z,1003.31
2016-05-29T00:44:13.348Z,1003.29
2016-05-29T00:45:13.428Z,1003.35
2016-05-29T00:46:13.462Z,1003.33
2016-05-29T00:47:13.512Z,1003.35
2016-05-29T00:48:13.561Z,1003.37
2016-05-29T00:49:13.627Z,1003.4
2016-05-29T00:50:13.677Z,1003.4
2016-05-29T00:51:13.725Z,1003.42
2016-05-29T00:52:13.792Z,1003.4
2016-05-29T00:53:13.841Z,1003.43
2016-05-29T00:54:13.891Z,1003.41
2016-05-29T00:55:13.955Z,1003.41
2016-05-29T00:56:14.005Z,1003.38
2016-05-29T00:57:14.054Z,1003.39
2016-05-29T00:58:14.105Z,1003.32
2016-05-29T00:59:14.169Z,1003.34
2016-05-29T01:00:14.218Z,1003.33
2016-05-29T01:01:14.269Z,1003.37
2016-05-29T01:02:14.334Z,1003.31
2016-05-29T01:03:14.383Z,1003.34
2016-05-29T01:04:14.432Z,1003.31
2016-05-29T01:05:14.826Z,1003.29
2016-05-29T01:06:14.532Z,1003.31
2016-05-29T01:07:14.598Z,1003.26
2016-05-29T01:08:14.646Z,1003.24
2016-05-29T01:09:14.696Z,1003.18
2016-05-29T01:10:14.745Z,1003.2
2016-05-29T01:11:14.811Z,1003.17
2016-05-29T01:12:14.861Z,1003.1
2016-05-29T01:13:14.909Z,1003.06
2016-05-29T01:14:14.975Z,1003.02
2016-05-29T01:15:15.025Z,1003.06
2016-05-29T01:16:15.090Z,1003.05
2016-05-29T01:17:15.139Z,1003.01
2016-05-29T01:18:15.189Z,1002.95
2016-05-29T01:19:15.239Z,1002.94
2016-05-29T01:20:15.819Z,1002.9
2016-05-29T01:21:15.713Z,1002.9
2016-05-29T01:22:15.403Z,1002.87
2016-05-29T01:23:15.452Z,1002.81
2016-05-29T01:24:15.518Z,1002.85
2016-05-29T01:25:15.567Z,1002.84
2016-05-29T01:26:15.617Z,1002.85
2016-05-29T01:27:15.682Z,1002.89
2016-05-29T01:28:15.732Z,1002.93
2016-05-29T01:29:15.782Z,1002.92
2016-05-29T01:30:15.831Z,1002.86
2016-05-29T01:31:15.896Z,1002.86
2016-05-29T01:32:15.946Z,1002.82
2016-05-29T01:33:15.996Z,1002.77
2016-05-29T01:34:16.045Z,1002.77
2016-05-29T01:35:16.110Z,1002.73
2016-05-29T01:36:16.160Z,1002.7
2016-05-29T01:37:16.209Z,1002.71
2016-05-29T01:38:16.274Z,1002.69
2016-05-29T01:39:16.324Z,1002.67
2016-05-29T01:40:16.373Z,1002.7
2016-05-29T01:41:16.439Z,1002.64
2016-05-29T01:42:16.488Z,1002.58
2016-05-29T01:43:16.537Z,1002.53
2016-05-29T01:44:16.603Z,1002.48
2016-05-29T01:45:16.653Z,1002.49
2016-05-29T01:46:16.703Z,1002.51
2016-05-29T01:47:16.751Z,1002.52
2016-05-29T01:48:16.801Z,1002.46
2016-05-29T01:49:16.866Z,1002.5
2016-05-29T01:50:16.916Z,1002.45
2016-05-29T01:51:16.981Z,1002.43
2016-05-29T01:52:17.030Z,1002.41
2016-05-29T01:53:17.080Z,1002.35
2016-05-29T01:54:17.130Z,1002.33
2016-05-29T01:55:17.179Z,1002.34
2016-05-29T01:56:17.244Z,1002.28
2016-05-29T01:57:17.294Z,1002.3
2016-05-29T01:58:17.343Z,1002.32
2016-05-29T01:59:17.409Z,1002.37
2016-05-29T02:00:17.458Z,1002.5
2016-05-29T02:01:17.508Z,1002.54
2016-05-29T02:02:17.573Z,1002.37
2016-05-29T02:03:17.623Z,1002.42
2016-05-29T02:04:17.672Z,1002.49
2016-05-29T02:05:17.738Z,1002.53
2016-05-29T02:06:17.788Z,1002.52
2016-05-29T02:07:17.836Z,1002.49
2016-05-29T02:08:17.887Z,1002.53
2016-05-29T02:09:17.952Z,1002.59
2016-05-29T02:10:18.001Z,1002.62
2016-05-29T02:11:18.050Z,1002.57
2016-05-29T02:12:18.101Z,1002.59
2016-05-29T02:13:18.165Z,1002.61
2016-05-29T02:14:18.215Z,1002.56
2016-05-29T02:15:18.264Z,1002.56
2016-05-29T02:16:18.314Z,1002.56
2016-05-29T02:17:18.379Z,1002.56
2016-05-29T02:18:18.429Z,1002.59
2016-05-29T02:19:18.478Z,1002.59
2016-05-29T02:20:18.715Z,1002.54
2016-05-29T02:21:18.592Z,1002.56
2016-05-29T02:22:18.642Z,1002.48
2016-05-29T02:23:18.692Z,1002.44
2016-05-29T02:24:18.757Z,1002.47
2016-05-29T02:25:18.807Z,1002.43
2016-05-29T02:26:18.856Z,1002.43
2016-05-29T02:27:18.922Z,1002.44
2016-05-29T02:28:18.971Z,1002.46
2016-05-29T02:29:19.021Z,1002.48
2016-05-29T02:30:19.071Z,1002.45
2016-05-29T02:31:19.135Z,1002.48
2016-05-29T02:32:19.185Z,1002.49
2016-05-29T02:33:19.235Z,1002.52
2016-05-29T02:34:19.300Z,1002.52
2016-05-29T02:35:19.615Z,1002.55
2016-05-29T02:36:19.883Z,1002.52
2016-05-29T02:37:19.464Z,1002.59
2016-05-29T02:38:19.513Z,1002.52
2016-05-29T02:39:19.563Z,1002.54
2016-05-29T02:40:19.612Z,1002.58
2016-05-29T02:41:19.679Z,1002.61
2016-05-29T02:42:19.728Z,1002.59
2016-05-29T02:43:19.777Z,1002.57
2016-05-29T02:44:19.842Z,1002.59
2016-05-29T02:45:19.892Z,1002.59
2016-05-29T02:46:19.942Z,1002.5
2016-05-29T02:47:20.006Z,1002.47
2016-05-29T02:48:20.057Z,1002.44
2016-05-29T02:49:20.106Z,1002.41
2016-05-29T02:50:20.156Z,1002.4
2016-05-29T02:51:20.205Z,1002.39
2016-05-29T02:52:20.269Z,1002.41
2016-05-29T02:53:20.320Z,1002.36
2016-05-29T02:54:20.369Z,1002.37
2016-05-29T02:55:20.419Z,1002.34
2016-05-29T02:56:20.483Z,1002.34
2016-05-29T02:57:20.534Z,1002.35
2016-05-29T02:58:20.583Z,1002.3
2016-05-29T02:59:20.632Z,1002.27
2016-05-29T03:00:20.698Z,1002.26
2016-05-29T03:01:20.747Z,1002.27
2016-05-29T03:02:20.813Z,1002.29
2016-05-29T03:03:20.862Z,1002.26
2016-05-29T03:04:20.912Z,1002.24
2016-05-29T03:05:20.977Z,1002.22
2016-05-29T03:06:21.026Z,1002.21
2016-05-29T03:07:21.076Z,1002.18
2016-05-29T03:08:21.126Z,1002.19
2016-05-29T03:09:21.191Z,1002.22
2016-05-29T03:10:21.240Z,1002.25
2016-05-29T03:11:21.290Z,1002.24
2016-05-29T03:12:21.355Z,1002.24
2016-05-29T03:13:21.404Z,1002.23
2016-05-29T03:14:21.454Z,1002.24
2016-05-29T03:15:21.504Z,1002.27
2016-05-29T03:16:21.570Z,1002.29
2016-05-29T03:17:21.618Z,1002.33
2016-05-29T03:18:21.667Z,1002.35
2016-05-29T03:19:21.733Z,1002.36
2016-05-29T03:20:21.783Z,1002.4
2016-05-29T03:21:21.833Z,1002.4
2016-05-29T03:22:21.881Z,1002.41
2016-05-29T03:23:21.948Z,1002.39
2016-05-29T03:24:21.997Z,1002.4
2016-05-29T03:25:22.046Z,1002.42
2016-05-29T03:26:22.112Z,1002.43
2016-05-29T03:27:22.177Z,1002.41
2016-05-29T03:28:22.211Z,1002.38
2016-05-29T03:29:22.275Z,1002.38
2016-05-29T03:30:22.325Z,1002.36
2016-05-29T03:31:22.375Z,1002.36
2016-05-29T03:32:22.424Z,1002.34
2016-05-29T03:33:22.490Z,1002.32
2016-05-29T03:34:22.539Z,1002.33
2016-05-29T03:35:22.604Z,1002.32
2016-05-29T03:36:22.638Z,1002.34
2016-05-29T03:37:22.704Z,1002.3
2016-05-29T03:38:22.754Z,1002.33
2016-05-29T03:39:22.802Z,1002.3
2016-05-29T03:40:22.852Z,1002.27
2016-05-29T03:41:22.918Z,1002.26
2016-05-29T03:42:22.967Z,1002.29
2016-05-29T03:43:23.032Z,1002.25
2016-05-29T03:44:23.066Z,1002.35
2016-05-29T03:45:23.131Z,1002.3
2016-05-29T03:46:23.181Z,1002.31
2016-05-29T03:47:23.246Z,1002.32
2016-05-29T03:48:23.295Z,1002.28
2016-05-29T03:49:23.345Z,1002.25
2016-05-29T03:50:23.395Z,1002.23
2016-05-29T03:51:23.460Z,1002.21
2016-05-29T03:52:23.509Z,1002.18
2016-05-29T03:53:23.559Z,1002.14
2016-05-29T03:54:23.625Z,1002.18
2016-05-29T03:55:23.674Z,1002.22
2016-05-29T03:56:23.723Z,1002.2
2016-05-29T03:57:23.773Z,1002.2
2016-05-29T03:58:23.822Z,1002.21
2016-05-29T03:59:23.888Z,1002.18
2016-05-29T04:00:23.937Z,1002.22
2016-05-29T04:01:23.987Z,1002.19
2016-05-29T04:02:24.052Z,1002.17
2016-05-29T04:03:24.101Z,1002.21
2016-05-29T04:04:24.152Z,1002.18
2016-05-29T04:05:24.202Z,1002.13
2016-05-29T04:06:24.969Z,1002.18
2016-05-29T04:07:24.315Z,1002.12
2016-05-29T04:08:24.366Z,1002.1
2016-05-29T04:09:24.415Z,1002.12
2016-05-29T04:10:24.464Z,1002.14
2016-05-29T04:11:24.529Z,1002.17
2016-05-29T04:12:24.579Z,1002.15
2016-05-29T04:13:24.644Z,1002.17
2016-05-29T04:14:24.693Z,1002.12
2016-05-29T04:15:24.743Z,1002.15
2016-05-29T04:16:24.793Z,1002.13
2016-05-29T04:17:24.842Z,1002.11
2016-05-29T04:18:24.907Z,1002.1
2016-05-29T04:19:24.957Z,1002.11
2016-05-29T04:20:25.038Z,1002.12
2016-05-29T04:21:25.759Z,1002.14
2016-05-29T04:22:25.122Z,1002.07
2016-05-29T04:23:25.171Z,1002.07
2016-05-29T04:24:25.220Z,1002.06
2016-05-29T04:25:25.286Z,1002.04
2016-05-29T04:26:25.335Z,1002
2016-05-29T04:27:25.386Z,1002
2016-05-29T04:28:25.434Z,1001.97
2016-05-29T04:29:25.499Z,1001.99
2016-05-29T04:30:25.549Z,1001.98
2016-05-29T04:31:25.599Z,1001.96
2016-05-29T04:32:25.649Z,1001.91
2016-05-29T04:33:25.713Z,1001.93
2016-05-29T04:34:25.764Z,1001.92
2016-05-29T04:35:25.813Z,1001.93
2016-05-29T04:36:25.863Z,1001.89
2016-05-29T04:37:25.927Z,1001.92
2016-05-29T04:38:25.976Z,1001.88
2016-05-29T04:39:26.027Z,1001.89
2016-05-29T04:40:26.091Z,1001.87
2016-05-29T04:41:26.141Z,1001.87
2016-05-29T04:42:26.190Z,1001.91
2016-05-29T04:43:26.241Z,1001.87
2016-05-29T04:44:26.306Z,1001.87
2016-05-29T04:45:26.354Z,1001.85
2016-05-29T04:46:26.405Z,1001.83
2016-05-29T04:47:26.470Z,1001.84
2016-05-29T04:48:26.520Z,1001.83
2016-05-29T04:49:26.570Z,1001.81
2016-05-29T04:50:26.634Z,1001.85
2016-05-29T04:51:26.684Z,1001.8
2016-05-29T04:52:26.733Z,1001.78
2016-05-29T04:53:26.798Z,1001.75
2016-05-29T04:54:26.848Z,1001.73
2016-05-29T04:55:26.898Z,1001.76
2016-05-29T04:56:27.103Z,1001.72
2016-05-29T04:57:27.012Z,1001.72
2016-05-29T04:58:27.047Z,1001.72
2016-05-29T04:59:27.111Z,1001.78
2016-05-29T05:00:27.161Z,1001.74
2016-05-29T05:01:27.211Z,1001.72
2016-05-29T05:02:27.276Z,1001.71
2016-05-29T05:03:27.325Z,1001.73
2016-05-29T05:04:27.375Z,1001.68
2016-05-29T05:05:27.440Z,1001.72
2016-05-29T05:06:27.490Z,1001.7
2016-05-29T05:07:27.539Z,1001.69
2016-05-29T05:08:27.604Z,1001.66
2016-05-29T05:09:27.655Z,1001.63
2016-05-29T05:10:27.704Z,1001.6
2016-05-29T05:11:27.769Z,1001.59
2016-05-29T05:12:27.834Z,1001.61
2016-05-29T05:13:27.868Z,1001.61
2016-05-29T05:14:27.918Z,1001.58
2016-05-29T05:15:27.982Z,1001.64
2016-05-29T05:16:28.018Z,1001.61
2016-05-29T05:17:28.082Z,1001.58
2016-05-29T05:18:28.132Z,1001.6
2016-05-29T05:19:28.196Z,1001.6
2016-05-29T05:20:28.245Z,1001.6
2016-05-29T05:21:28.296Z,1001.57
2016-05-29T05:22:28.345Z,1001.57
2016-05-29T05:23:28.411Z,1001.56
2016-05-29T05:24:28.459Z,1001.59
2016-05-29T05:25:28.510Z,1001.6
2016-05-29T05:26:28.559Z,1001.62
2016-05-29T05:27:28.608Z,1001.64
2016-05-29T05:28:28.675Z,1001.65
2016-05-29T05:29:28.723Z,1001.6
2016-05-29T05:30:28.789Z,1001.64
2016-05-29T05:31:28.838Z,1001.67
2016-05-29T05:32:28.888Z,1001.66
2016-05-29T05:33:28.938Z,1001.65
2016-05-29T05:34:29.002Z,1001.65
2016-05-29T05:35:29.052Z,1001.66
2016-05-29T05:36:29.117Z,1001.63
2016-05-29T05:37:29.167Z,1001.64
2016-05-29T05:38:29.216Z,1001.65
2016-05-29T05:39:29.266Z,1001.69
2016-05-29T05:40:29.332Z,1001.68
2016-05-29T05:41:29.380Z,1001.73
2016-05-29T05:42:29.430Z,1001.75
2016-05-29T05:43:29.479Z,1001.78
2016-05-29T05:44:29.545Z,1001.79
2016-05-29T05:45:29.595Z,1001.82
2016-05-29T05:46:29.644Z,1001.88
2016-05-29T05:47:29.693Z,1001.86
2016-05-29T05:48:29.774Z,1001.87
2016-05-29T05:49:29.809Z,1001.87
2016-05-29T05:50:29.858Z,1001.81
2016-05-29T05:51:29.908Z,1001.8
2016-05-29T05:52:29.973Z,1001.81
2016-05-29T05:53:30.022Z,1001.85
2016-05-29T05:54:30.088Z,1001.9
2016-05-29T05:55:30.122Z,1001.93
2016-05-29T05:56:30.186Z,1001.88
2016-05-29T05:57:30.236Z,1001.93
2016-05-29T05:58:30.301Z,1001.95
2016-05-29T05:59:30.351Z,1001.97
2016-05-29T06:00:30.400Z,1001.94
2016-05-29T06:01:30.450Z,1001.92
2016-05-29T06:02:30.515Z,1001.93
2016-05-29T06:03:30.565Z,1001.97
2016-05-29T06:04:30.614Z,1001.98
2016-05-29T06:05:30.867Z,1001.93
2016-05-29T06:06:30.791Z,1001.97
2016-05-29T06:07:30.780Z,1001.95
2016-05-29T06:08:30.828Z,1001.92
2016-05-29T06:09:30.893Z,1001.97
2016-05-29T06:10:30.943Z,1001.93
2016-05-29T06:11:30.993Z,1001.89
2016-05-29T06:12:31.043Z,1001.87
2016-05-29T06:13:31.107Z,1001.91
2016-05-29T06:14:31.157Z,1001.87
2016-05-29T06:15:31.207Z,1001.82
2016-05-29T06:16:31.256Z,1001.82
2016-05-29T06:17:31.321Z,1001.83
2016-05-29T06:18:31.371Z,1001.78
2016-05-29T06:19:31.421Z,1001.77
2016-05-29T06:20:31.485Z,1001.74
2016-05-29T06:21:31.535Z,1001.76
2016-05-29T06:22:31.584Z,1001.72
2016-05-29T06:23:31.634Z,1001.71
2016-05-29T06:24:31.700Z,1001.67
2016-05-29T06:25:31.748Z,1001.66
2016-05-29T06:26:31.798Z,1001.69
2016-05-29T06:27:31.864Z,1001.64
2016-05-29T06:28:31.914Z,1001.65
2016-05-29T06:29:31.963Z,1001.65
2016-05-29T06:30:32.012Z,1001.64
2016-05-29T06:31:32.078Z,1001.63
2016-05-29T06:32:32.128Z,1001.6
2016-05-29T06:33:32.177Z,1001.58
2016-05-29T06:34:32.241Z,1001.6
2016-05-29T06:35:32.292Z,1001.57
2016-05-29T06:36:32.919Z,1001.59
2016-05-29T06:37:32.391Z,1001.54
2016-05-29T06:38:32.455Z,1001.53
2016-05-29T06:39:32.506Z,1001.52
2016-05-29T06:40:32.555Z,1001.52
2016-05-29T06:41:32.620Z,1001.54
2016-05-29T06:42:32.670Z,1001.52
2016-05-29T06:43:32.719Z,1001.53
2016-05-29T06:44:32.784Z,1001.5
2016-05-29T06:45:32.834Z,1001.54
2016-05-29T06:46:32.885Z,1001.54
2016-05-29T06:47:32.933Z,1001.54
2016-05-29T06:48:32.998Z,1001.55
2016-05-29T06:49:33.048Z,1001.57
2016-05-29T06:50:33.097Z,1001.62
2016-05-29T06:51:33.351Z,1001.6
2016-05-29T06:52:33.196Z,1001.55
2016-05-29T06:53:33.262Z,1001.55
2016-05-29T06:54:33.312Z,1001.58
2016-05-29T06:55:33.377Z,1001.58
2016-05-29T06:56:33.426Z,1001.55
2016-05-29T06:57:33.475Z,1001.6
2016-05-29T06:58:33.542Z,1001.61
2016-05-29T06:59:33.590Z,1001.61
2016-05-29T07:00:33.640Z,1001.61
2016-05-29T07:01:33.689Z,1001.55
2016-05-29T07:02:33.739Z,1001.56
2016-05-29T07:03:33.805Z,1001.55
2016-05-29T07:04:33.853Z,1001.58
2016-05-29T07:05:33.919Z,1001.63
2016-05-29T07:06:33.969Z,1001.62
2016-05-29T07:07:34.019Z,1001.69
2016-05-29T07:08:34.083Z,1001.68
2016-05-29T07:09:34.133Z,1001.64
2016-05-29T07:10:34.183Z,1001.65
2016-05-29T07:11:34.232Z,1001.62
2016-05-29T07:12:34.282Z,1001.61
2016-05-29T07:13:34.347Z,1001.65
2016-05-29T07:14:34.396Z,1001.65
2016-05-29T07:15:34.462Z,1001.6
2016-05-29T07:16:34.496Z,1001.68
2016-05-29T07:17:34.560Z,1001.69
2016-05-29T07:18:34.610Z,1001.71
2016-05-29T07:19:34.660Z,1001.71
2016-05-29T07:20:34.710Z,1001.76
2016-05-29T07:21:35.509Z,1001.75
2016-05-29T07:22:34.824Z,1001.7
2016-05-29T07:23:34.873Z,1001.67
2016-05-29T07:24:34.939Z,1001.63
2016-05-29T07:25:34.989Z,1001.61
2016-05-29T07:26:35.054Z,1001.62
2016-05-29T07:27:35.103Z,1001.6
2016-05-29T07:28:35.153Z,1001.57
2016-05-29T07:29:35.203Z,1001.54
2016-05-29T07:30:35.252Z,1001.54
2016-05-29T07:31:35.317Z,1001.52
2016-05-29T07:32:35.383Z,1001.53
2016-05-29T07:33:35.416Z,1001.5
2016-05-29T07:34:35.482Z,1001.47
2016-05-29T07:35:35.531Z,1001.46
2016-05-29T07:36:35.909Z,1001.42
2016-05-29T07:37:35.630Z,1001.43
2016-05-29T07:38:35.694Z,1001.44
2016-05-29T07:39:35.745Z,1001.45
2016-05-29T07:40:35.810Z,1001.47
2016-05-29T07:41:35.860Z,1001.5
2016-05-29T07:42:35.909Z,1001.48
2016-05-29T07:43:35.959Z,1001.53
2016-05-29T07:44:36.024Z,1001.54
2016-05-29T07:45:36.073Z,1001.53
2016-05-29T07:46:36.124Z,1001.53
2016-05-29T07:47:36.188Z,1001.47
2016-05-29T07:48:36.222Z,1001.52
2016-05-29T07:49:36.287Z,1001.48
2016-05-29T07:50:36.337Z,1001.46
2016-05-29T07:51:36.621Z,1001.52
2016-05-29T07:52:36.451Z,1001.51
2016-05-29T07:53:36.501Z,1001.52
2016-05-29T07:54:36.567Z,1001.58
2016-05-29T07:55:36.616Z,1001.59
2016-05-29T07:56:36.665Z,1001.6
2016-05-29T07:57:36.715Z,1001.62
2016-05-29T07:58:36.765Z,1001.61
2016-05-29T07:59:36.830Z,1001.6
2016-05-29T08:00:36.879Z,1001.58
2016-05-29T08:01:36.929Z,1001.54
2016-05-29T08:02:36.995Z,1001.51
2016-05-29T08:03:37.044Z,1001.53
2016-05-29T08:04:37.108Z,1001.53
2016-05-29T08:05:37.846Z,1001.52
2016-05-29T08:06:37.208Z,1001.6
2016-05-29T08:07:37.258Z,1001.58
2016-05-29T08:08:37.307Z,1001.6
2016-05-29T08:09:37.372Z,1001.61
2016-05-29T08:10:37.422Z,1001.59
2016-05-29T08:11:37.472Z,1001.64
2016-05-29T08:12:37.536Z,1001.62
2016-05-29T08:13:37.586Z,1001.64
2016-05-29T08:14:37.635Z,1001.59
2016-05-29T08:15:37.686Z,1001.62
2016-05-29T08:16:37.751Z,1001.57
2016-05-29T08:17:37.799Z,1001.61
2016-05-29T08:18:37.850Z,1001.61
2016-05-29T08:19:37.915Z,1001.65
2016-05-29T08:20:38.433Z,1001.7
2016-05-29T08:21:38.014Z,1001.65
2016-05-29T08:22:38.064Z,1001.73
2016-05-29T08:23:38.113Z,1001.73
2016-05-29T08:24:38.179Z,1001.79
2016-05-29T08:25:38.228Z,1001.82
2016-05-29T08:26:38.293Z,1001.87
2016-05-29T08:27:38.365Z,1001.86
2016-05-29T08:28:38.437Z,1001.9
2016-05-29T08:29:38.524Z,1001.88
2016-05-29T08:30:38.595Z,1001.87
2016-05-29T08:31:38.668Z,1001.88
2016-05-29T08:32:38.725Z,1001.9
2016-05-29T08:33:38.799Z,1001.91
2016-05-29T08:34:38.888Z,1001.89
2016-05-29T08:35:38.914Z,1001.87
2016-05-29T08:36:38.972Z,1001.86
2016-05-29T08:37:39.024Z,1001.83
2016-05-29T08:38:39.093Z,1001.79
2016-05-29T08:39:39.161Z,1001.83
2016-05-29T08:40:39.214Z,1001.86
2016-05-29T08:41:39.266Z,1001.8
2016-05-29T08:42:39.317Z,1001.8
2016-05-29T08:43:39.367Z,1001.77
2016-05-29T08:44:39.433Z,1001.77
2016-05-29T08:45:39.483Z,1001.79
2016-05-29T08:46:39.533Z,1001.78
2016-05-29T08:47:39.598Z,1001.78
2016-05-29T08:48:39.649Z,1001.78
2016-05-29T08:49:39.699Z,1001.77
2016-05-29T08:50:39.765Z,1001.81
2016-05-29T08:51:39.814Z,1001.81
2016-05-29T08:52:39.864Z,1001.8
2016-05-29T08:53:39.914Z,1001.78
2016-05-29T08:54:39.980Z,1001.83
2016-05-29T08:55:40.046Z,1001.77
2016-05-29T08:56:40.095Z,1001.8
2016-05-29T08:57:40.129Z,1001.8
2016-05-29T08:58:40.195Z,1001.81
2016-05-29T08:59:40.244Z,1001.83
2016-05-29T09:00:40.294Z,1001.81
2016-05-29T09:01:40.359Z,1001.8
2016-05-29T09:02:40.409Z,1001.78
2016-05-29T09:03:40.458Z,1001.75
2016-05-29T09:04:40.508Z,1001.7
2016-05-29T09:05:40.572Z,1001.68
2016-05-29T09:06:40.622Z,1001.69
2016-05-29T09:07:40.672Z,1001.63
2016-05-29T09:08:40.737Z,1001.63
2016-05-29T09:09:40.786Z,1001.6
2016-05-29T09:10:40.836Z,1001.53
2016-05-29T09:11:40.901Z,1001.52
2016-05-29T09:12:40.952Z,1001.5
2016-05-29T09:13:41.016Z,1001.47
2016-05-29T09:14:41.050Z,1001.46
2016-05-29T09:15:41.115Z,1001.42
2016-05-29T09:16:41.165Z,1001.46
2016-05-29T09:17:41.215Z,1001.4
2016-05-29T09:18:41.263Z,1001.38
2016-05-29T09:19:41.329Z,1001.36
2016-05-29T09:20:41.691Z,1001.34
2016-05-29T09:21:41.429Z,1001.3
2016-05-29T09:22:41.493Z,1001.29
2016-05-29T09:23:41.527Z,1001.27
2016-05-29T09:24:41.593Z,1001.28
2016-05-29T09:25:41.642Z,1001.27
2016-05-29T09:26:41.707Z,1001.29
2016-05-29T09:27:41.757Z,1001.29
2016-05-29T09:28:41.806Z,1001.27
2016-05-29T09:29:41.856Z,1001.29
2016-05-29T09:30:41.921Z,1001.3
2016-05-29T09:31:41.970Z,1001.28
2016-05-29T09:32:42.020Z,1001.26
2016-05-29T09:33:42.086Z,1001.23
2016-05-29T09:34:42.136Z,1001.23
2016-05-29T09:35:42.341Z,1001.21
2016-05-29T09:36:42.250Z,1001.27
2016-05-29T09:37:42.300Z,1001.26
2016-05-29T09:38:42.349Z,1001.26
2016-05-29T09:39:42.399Z,1001.29
2016-05-29T09:40:42.447Z,1001.27
2016-05-29T09:41:42.513Z,1001.35
2016-05-29T09:42:42.563Z,1001.27
2016-05-29T09:43:42.613Z,1001.28
2016-05-29T09:44:42.662Z,1001.28
2016-05-29T09:45:42.727Z,1001.29
2016-05-29T09:46:42.777Z,1001.31
2016-05-29T09:47:44.764Z,1001.31
2016-05-29T09:48:42.876Z,1001.33
2016-05-29T09:49:42.941Z,1001.28
2016-05-29T09:50:43.179Z,1001.32
2016-05-29T09:51:43.634Z,1001.37
2016-05-29T09:52:45.465Z,1001.37
2016-05-29T09:53:43.170Z,1001.36
2016-05-29T09:54:43.205Z,1001.39
2016-05-29T09:55:43.254Z,1001.36
2016-05-29T09:56:43.320Z,1001.36
2016-05-29T09:57:43.368Z,1001.36
2016-05-29T09:58:43.418Z,1001.38
2016-05-29T09:59:43.484Z,1001.36
2016-05-29T10:00:43.533Z,1001.38
2016-05-29T10:01:43.584Z,1001.38
2016-05-29T10:02:46.007Z,1001.39
2016-05-29T10:03:43.698Z,1001.44
2016-05-29T10:04:43.747Z,1001.43
2016-05-29T10:05:43.796Z,1001.42
2016-05-29T10:06:43.847Z,1001.43
2016-05-29T10:07:43.895Z,1001.42
2016-05-29T10:08:43.945Z,1001.39
2016-05-29T10:09:44.010Z,1001.44
2016-05-29T10:10:44.061Z,1001.36
2016-05-29T10:11:44.110Z,1001.4
2016-05-29T10:12:45.441Z,1001.38
2016-05-29T10:13:44.224Z,1001.38
2016-05-29T10:14:44.274Z,1001.39
2016-05-29T10:15:44.324Z,1001.4
2016-05-29T10:16:44.388Z,1001.39
2016-05-29T10:17:44.860Z,1001.39
2016-05-29T10:18:44.487Z,1001.36
2016-05-29T10:19:44.538Z,1001.38
2016-05-29T10:20:44.618Z,1001.39
2016-05-29T10:21:45.043Z,1001.43
2016-05-29T10:22:45.498Z,1001.43
2016-05-29T10:23:44.752Z,1001.41
2016-05-29T10:24:44.816Z,1001.4
2016-05-29T10:25:44.865Z,1001.39
2016-05-29T10:26:44.916Z,1001.38
2016-05-29T10:27:44.965Z,1001.35
2016-05-29T10:28:45.015Z,1001.35
2016-05-29T10:29:45.079Z,1001.39
2016-05-29T10:30:45.129Z,1001.34
2016-05-29T10:31:45.179Z,1001.37
2016-05-29T10:32:45.228Z,1001.34
2016-05-29T10:33:45.278Z,1001.35
2016-05-29T10:34:45.343Z,1001.36
2016-05-29T10:35:45.409Z,1001.36
2016-05-29T10:36:45.442Z,1001.35
2016-05-29T10:37:45.508Z,1001.35
2016-05-29T10:38:45.557Z,1001.31
2016-05-29T10:39:45.606Z,1001.36
2016-05-29T10:40:45.656Z,1001.33
2016-05-29T10:41:45.706Z,1001.34
2016-05-29T10:42:45.771Z,1001.35
2016-05-29T10:43:45.821Z,1001.31
2016-05-29T10:44:45.870Z,1001.33
2016-05-29T10:45:45.935Z,1001.31
2016-05-29T10:46:45.985Z,1001.32
2016-05-29T10:47:47.957Z,1001.28
2016-05-29T10:48:46.085Z,1001.32
2016-05-29T10:49:46.133Z,1001.38
2016-05-29T10:50:46.199Z,1001.31
2016-05-29T10:51:46.858Z,1001.35
2016-05-29T10:52:49.829Z,1001.3
2016-05-29T10:53:46.363Z,1001.34
2016-05-29T10:54:46.413Z,1001.34
2016-05-29T10:55:46.462Z,1001.3
2016-05-29T10:56:46.512Z,1001.35
2016-05-29T10:57:46.796Z,1001.34
2016-05-29T10:58:46.611Z,1001.33
2016-05-29T10:59:46.676Z,1001.4
2016-05-29T11:00:46.726Z,1001.38
2016-05-29T11:01:46.776Z,1001.38
2016-05-29T11:02:46.825Z,1001.36
2016-05-29T11:03:46.890Z,1001.32
2016-05-29T11:04:46.940Z,1001.32
2016-05-29T11:05:46.989Z,1001.32
2016-05-29T11:06:47.054Z,1001.3
2016-05-29T11:07:48.761Z,1001.27
2016-05-29T11:08:47.153Z,1001.26
2016-05-29T11:09:47.203Z,1001.26
2016-05-29T11:10:47.269Z,1001.23
2016-05-29T11:11:47.317Z,1001.21
2016-05-29T11:12:47.383Z,1001.18
2016-05-29T11:13:47.511Z,1001.2
2016-05-29T11:14:47.466Z,1001.18
2016-05-29T11:15:47.516Z,1001.17
2016-05-29T11:16:47.612Z,1001.14
2016-05-29T11:17:47.927Z,1001.14
2016-05-29T11:18:47.680Z,1001.19
2016-05-29T11:19:47.746Z,1001.17
2016-05-29T11:20:48.404Z,1001.17
2016-05-29T11:21:47.844Z,1001.18
2016-05-29T11:22:48.738Z,1001.19
2016-05-29T11:23:47.960Z,1001.23
2016-05-29T11:24:48.009Z,1001.22
2016-05-29T11:25:48.059Z,1001.25
2016-05-29T11:26:48.107Z,1001.22
2016-05-29T11:27:50.065Z,1001.21
2016-05-29T11:28:48.207Z,1001.22
2016-05-29T11:29:48.272Z,1001.2
2016-05-29T11:30:48.323Z,1001.17
2016-05-29T11:31:48.371Z,1001.19
2016-05-29T11:32:49.156Z,1001.17
2016-05-29T11:33:48.486Z,1001.18
2016-05-29T11:34:48.536Z,1001.14
2016-05-29T11:35:48.586Z,1001.15
2016-05-29T11:36:48.635Z,1001.17
2016-05-29T11:37:48.700Z,1001.12
2016-05-29T11:38:48.750Z,1001.14
2016-05-29T11:39:48.799Z,1001.18
2016-05-29T11:40:48.850Z,1001.15
2016-05-29T11:41:48.898Z,1001.16
2016-05-29T11:42:49.573Z,1001.16
2016-05-29T11:43:49.013Z,1001.14
2016-05-29T11:44:49.063Z,1001.12
2016-05-29T11:45:49.113Z,1001.1
2016-05-29T11:46:49.161Z,1001.1
2016-05-29T11:47:50.477Z,1001.1
2016-05-29T11:48:49.277Z,1001.14
2016-05-29T11:49:49.326Z,1001.14
2016-05-29T11:50:49.391Z,1001.12
2016-05-29T11:51:49.425Z,1001.15
2016-05-29T11:52:50.756Z,1001.15
2016-05-29T11:53:49.540Z,1001.15
2016-05-29T11:54:49.590Z,1001.11
2016-05-29T11:55:49.640Z,1001.11
2016-05-29T11:56:49.704Z,1001.09
2016-05-29T11:57:50.848Z,1001.1
2016-05-29T11:58:49.804Z,1001.11
2016-05-29T11:59:49.853Z,1001.1
2016-05-29T12:00:49.918Z,1001.09
2016-05-29T12:01:49.968Z,1001.07
2016-05-29T12:02:50.017Z,1001
2016-05-29T12:03:50.082Z,1001.11
2016-05-29T12:04:50.117Z,1001.08
2016-05-29T12:05:50.167Z,1001.13
2016-05-29T12:06:50.231Z,1001.13
2016-05-29T12:07:53.687Z,1001.12
2016-05-29T12:08:50.331Z,1001.11